sensor_id;sensor_type;location;lat;lon;timestamp;pressure;altitude;pressure_sealevel;temperature;humidity
41140;BME280;26881;48.784;9.192;2023-11-21T00:01:11;97996.38;;;8.19;100.00
41140;BME280;26881;48.784;9.192;2023-11-21T00:06:33;97990.44;;;8.32;100.00
41140;BME280;26881;48.784;9.192;2023-11-21T00:11:55;97988.03;;;8.29;100.00
41140;BME280;26881;48.784;9.192;2023-11-21T00:17:17;97977.59;;;8.29;100.00
41140;BME280;26881;48.784;9.192;2023-11-21T00:22:39;97975.75;;;8.16;100.00
41140;BME280;26881;48.784;9.192;2023-11-21T00:28:02;97976.84;;;8.12;100.00
41140;BME280;26881;48.784;9.192;2023-11-21T00:33:24;97975.81;;;8.15;100.00
41140;BME280;26881;48.784;9.192;2023-11-21T00:38:47;97977.69;;;8.27;100.00
41140;BME280;26881;48.784;9.192;2023-11-21T00:44:10;97978.28;;;8.32;100.00
41140;BME280;26881;48.784;9.192;2023-11-21T00:49:32;97974.72;;;8.33;100.00
41140;BME280;26881;48.784;9.192;2023-11-21T00:54:54;97972.16;;;8.48;100.00
41140;BME280;26881;48.784;9.192;2023-11-21T01:00:16;97969.25;;;8.38;100.00
41140;BME280;26881;48.784;9.192;2023-11-21T01:05:40;97970.97;;;8.53;100.00
41140;BME280;26881;48.784;9.192;2023-11-21T01:11:02;97970.50;;;8.47;100.00
41140;BME280;26881;48.784;9.192;2023-11-21T01:16:25;97972.25;;;8.46;100.00
41140;BME280;26881;48.784;9.192;2023-11-21T01:21:46;97973.94;;;8.47;100.00
41140;BME280;26881;48.784;9.192;2023-11-21T01:27:08;97968.19;;;8.42;100.00
41140;BME280;26881;48.784;9.192;2023-11-21T01:32:30;97973.06;;;8.32;100.00
41140;BME280;26881;48.784;9.192;2023-11-21T01:37:52;97976.13;;;8.39;100.00
41140;BME280;26881;48.784;9.192;2023-11-21T01:43:15;97969.00;;;8.42;100.00
41140;BME280;26881;48.784;9.192;2023-11-21T01:48:37;97979.22;;;8.46;100.00
41140;BME280;26881;48.784;9.192;2023-11-21T01:54:00;97968.31;;;8.39;100.00
41140;BME280;26881;48.784;9.192;2023-11-21T01:59:22;97972.09;;;8.49;100.00
41140;BME280;26881;48.784;9.192;2023-11-21T02:04:44;97969.84;;;8.57;100.00
41140;BME280;26881;48.784;9.192;2023-11-21T02:10:07;97971.69;;;8.55;100.00
41140;BME280;26881;48.784;9.192;2023-11-21T02:15:29;97973.94;;;8.47;100.00
41140;BME280;26881;48.784;9.192;2023-11-21T02:20:51;97966.13;;;8.47;100.00
41140;BME280;26881;48.784;9.192;2023-11-21T02:26:13;97952.66;;;8.39;100.00
41140;BME280;26881;48.784;9.192;2023-11-21T02:31:35;97959.09;;;8.33;100.00
41140;BME280;26881;48.784;9.192;2023-11-21T02:36:57;97954.84;;;8.32;100.00
41140;BME280;26881;48.784;9.192;2023-11-21T02:42:19;97952.38;;;8.29;100.00
41140;BME280;26881;48.784;9.192;2023-11-21T02:47:41;97952.53;;;8.42;100.00
41140;BME280;26881;48.784;9.192;2023-11-21T02:53:03;97942.13;;;8.42;100.00
41140;BME280;26881;48.784;9.192;2023-11-21T02:58:27;97949.44;;;8.35;100.00
41140;BME280;26881;48.784;9.192;2023-11-21T03:03:49;97938.53;;;8.29;100.00
41140;BME280;26881;48.784;9.192;2023-11-21T03:09:12;97942.72;;;8.17;100.00
41140;BME280;26881;48.784;9.192;2023-11-21T03:14:35;97949.03;;;8.27;100.00
41140;BME280;26881;48.784;9.192;2023-11-21T03:19:56;97950.53;;;8.31;100.00
41140;BME280;26881;48.784;9.192;2023-11-21T03:25:19;97957.78;;;8.26;100.00
41140;BME280;26881;48.784;9.192;2023-11-21T03:30:40;97964.22;;;8.20;100.00
41140;BME280;26881;48.784;9.192;2023-11-21T03:36:02;97961.03;;;8.15;100.00
41140;BME280;26881;48.784;9.192;2023-11-21T03:41:25;97968.69;;;8.18;100.00
41140;BME280;26881;48.784;9.192;2023-11-21T03:46:47;97963.34;;;8.20;100.00
41140;BME280;26881;48.784;9.192;2023-11-21T03:52:09;97962.97;;;8.42;100.00
41140;BME280;26881;48.784;9.192;2023-11-21T03:57:31;97965.25;;;8.32;100.00
41140;BME280;26881;48.784;9.192;2023-11-21T04:02:53;97970.25;;;8.21;100.00
41140;BME280;26881;48.784;9.192;2023-11-21T04:08:15;97978.72;;;8.24;100.00
41140;BME280;26881;48.784;9.192;2023-11-21T04:13:38;97973.22;;;8.29;100.00
41140;BME280;26881;48.784;9.192;2023-11-21T04:19:00;97969.03;;;8.27;100.00
41140;BME280;26881;48.784;9.192;2023-11-21T04:24:22;97977.97;;;8.22;100.00
41140;BME280;26881;48.784;9.192;2023-11-21T04:29:44;97979.09;;;8.18;100.00
41140;BME280;26881;48.784;9.192;2023-11-21T04:35:06;97971.56;;;8.14;100.00
41140;BME280;26881;48.784;9.192;2023-11-21T04:40:28;97977.91;;;7.94;100.00
41140;BME280;26881;48.784;9.192;2023-11-21T04:45:50;97975.50;;;7.91;100.00
41140;BME280;26881;48.784;9.192;2023-11-21T04:51:12;97988.66;;;7.88;100.00
41140;BME280;26881;48.784;9.192;2023-11-21T04:56:34;97981.03;;;7.85;100.00
41140;BME280;26881;48.784;9.192;2023-11-21T05:01:56;97995.34;;;7.77;100.00
41140;BME280;26881;48.784;9.192;2023-11-21T05:07:18;97996.97;;;7.94;100.00
41140;BME280;26881;48.784;9.192;2023-11-21T05:12:41;97993.88;;;7.88;100.00
41140;BME280;26881;48.784;9.192;2023-11-21T05:18:03;98005.91;;;7.90;100.00
41140;BME280;26881;48.784;9.192;2023-11-21T05:23:24;98007.34;;;7.80;100.00
41140;BME280;26881;48.784;9.192;2023-11-21T05:28:46;98017.25;;;7.73;100.00
41140;BME280;26881;48.784;9.192;2023-11-21T05:34:08;98018.25;;;7.87;100.00
41140;BME280;26881;48.784;9.192;2023-11-21T05:39:30;98028.69;;;8.01;100.00
41140;BME280;26881;48.784;9.192;2023-11-21T05:44:52;98029.66;;;8.00;100.00
41140;BME280;26881;48.784;9.192;2023-11-21T05:50:15;98027.88;;;8.00;100.00
41140;BME280;26881;48.784;9.192;2023-11-21T05:55:37;98039.50;;;7.95;100.00
41140;BME280;26881;48.784;9.192;2023-11-21T06:01:01;98031.84;;;7.92;100.00
41140;BME280;26881;48.784;9.192;2023-11-21T06:06:22;98037.31;;;7.87;100.00
41140;BME280;26881;48.784;9.192;2023-11-21T06:11:46;98041.50;;;7.90;100.00
41140;BME280;26881;48.784;9.192;2023-11-21T06:17:08;98050.81;;;7.94;100.00
41140;BME280;26881;48.784;9.192;2023-11-21T06:22:31;98062.94;;;7.95;100.00
41140;BME280;26881;48.784;9.192;2023-11-21T06:27:53;98063.59;;;7.82;100.00
41140;BME280;26881;48.784;9.192;2023-11-21T06:33:16;98072.41;;;7.80;100.00
41140;BME280;26881;48.784;9.192;2023-11-21T06:38:38;98068.66;;;7.86;100.00
41140;BME280;26881;48.784;9.192;2023-11-21T06:43:59;98068.59;;;8.01;100.00
41140;BME280;26881;48.784;9.192;2023-11-21T06:49:21;98087.31;;;8.08;100.00
41140;BME280;26881;48.784;9.192;2023-11-21T06:54:45;98085.16;;;8.00;100.00
41140;BME280;26881;48.784;9.192;2023-11-21T07:00:07;98093.22;;;8.12;100.00
41140;BME280;26881;48.784;9.192;2023-11-21T07:05:33;98093.28;;;8.10;100.00
41140;BME280;26881;48.784;9.192;2023-11-21T07:10:54;98102.88;;;8.10;100.00
41140;BME280;26881;48.784;9.192;2023-11-21T07:16:16;98108.22;;;8.22;100.00
41140;BME280;26881;48.784;9.192;2023-11-21T07:21:39;98115.75;;;8.27;100.00
41140;BME280;26881;48.784;9.192;2023-11-21T07:27:01;98114.38;;;8.21;100.00
41140;BME280;26881;48.784;9.192;2023-11-21T07:32:23;98129.31;;;8.18;100.00
41140;BME280;26881;48.784;9.192;2023-11-21T07:37:45;98131.13;;;8.32;100.00
41140;BME280;26881;48.784;9.192;2023-11-21T07:43:08;98137.22;;;8.32;100.00
41140;BME280;26881;48.784;9.192;2023-11-21T07:48:31;98132.16;;;8.45;100.00
41140;BME280;26881;48.784;9.192;2023-11-21T07:53:53;98143.00;;;8.37;100.00
41140;BME280;26881;48.784;9.192;2023-11-21T07:59:14;98142.75;;;8.42;100.00
41140;BME280;26881;48.784;9.192;2023-11-21T08:04:36;98153.00;;;8.45;100.00
41140;BME280;26881;48.784;9.192;2023-11-21T08:09:58;98152.06;;;8.46;100.00
41140;BME280;26881;48.784;9.192;2023-11-21T08:15:20;98159.97;;;8.60;100.00
41140;BME280;26881;48.784;9.192;2023-11-21T08:20:43;98159.59;;;8.67;100.00
41140;BME280;26881;48.784;9.192;2023-11-21T08:26:05;98156.56;;;8.74;100.00
41140;BME280;26881;48.784;9.192;2023-11-21T08:31:28;98165.28;;;8.73;100.00
41140;BME280;26881;48.784;9.192;2023-11-21T08:36:50;98168.91;;;8.71;100.00
41140;BME280;26881;48.784;9.192;2023-11-21T08:42:13;98165.38;;;8.72;100.00
41140;BME280;26881;48.784;9.192;2023-11-21T08:47:35;98175.06;;;8.70;100.00
41140;BME280;26881;48.784;9.192;2023-11-21T08:52:58;98173.78;;;8.77;100.00
41140;BME280;26881;48.784;9.192;2023-11-21T08:58:20;98176.16;;;8.96;100.00
41140;BME280;26881;48.784;9.192;2023-11-21T09:03:41;98186.81;;;9.21;100.00
41140;BME280;26881;48.784;9.192;2023-11-21T09:09:06;98189.34;;;9.52;99.63
41140;BME280;26881;48.784;9.192;2023-11-21T09:14:27;98187.91;;;9.89;95.94
41140;BME280;26881;48.784;9.192;2023-11-21T09:19:50;98192.75;;;10.37;93.23
41140;BME280;26881;48.784;9.192;2023-11-21T09:25:13;98200.31;;;10.68;91.50
41140;BME280;26881;48.784;9.192;2023-11-21T09:30:35;98203.22;;;10.64;91.89
41140;BME280;26881;48.784;9.192;2023-11-21T09:35:57;98206.66;;;10.51;87.43
41140;BME280;26881;48.784;9.192;2023-11-21T09:41:26;98212.75;;;10.38;88.65
41140;BME280;26881;48.784;9.192;2023-11-21T09:46:53;98210.88;;;10.40;89.56
41140;BME280;26881;48.784;9.192;2023-11-21T09:52:22;98217.94;;;10.52;88.83
41140;BME280;26881;48.784;9.192;2023-11-21T09:57:50;98220.31;;;10.13;92.41
41140;BME280;26881;48.784;9.192;2023-11-21T10:03:12;98216.63;;;10.03;92.99
41140;BME280;26881;48.784;9.192;2023-11-21T10:08:35;98226.75;;;10.22;92.99
41140;BME280;26881;48.784;9.192;2023-11-21T10:14:11;98223.22;;;10.38;93.79
41140;BME280;26881;48.784;9.192;2023-11-21T10:19:36;98222.47;;;10.36;94.04
41140;BME280;26881;48.784;9.192;2023-11-21T10:24:58;98237.00;;;10.25;98.85
41140;BME280;26881;48.784;9.192;2023-11-21T10:30:20;98232.75;;;10.10;100.00
41140;BME280;26881;48.784;9.192;2023-11-21T10:35:49;98243.41;;;9.92;100.00
41140;BME280;26881;48.784;9.192;2023-11-21T10:41:17;98237.91;;;9.68;100.00
41140;BME280;26881;48.784;9.192;2023-11-21T10:46:40;98242.13;;;9.71;100.00
41140;BME280;26881;48.784;9.192;2023-11-21T10:52:04;98246.22;;;9.61;100.00
41140;BME280;26881;48.784;9.192;2023-11-21T10:57:26;98243.22;;;9.53;100.00
41140;BME280;26881;48.784;9.192;2023-11-21T11:02:51;98250.31;;;9.50;100.00
41140;BME280;26881;48.784;9.192;2023-11-21T11:08:15;98237.63;;;9.73;96.45
41140;BME280;26881;48.784;9.192;2023-11-21T11:13:43;98245.13;;;9.79;98.48
41140;BME280;26881;48.784;9.192;2023-11-21T11:19:07;98241.31;;;10.41;96.46
41140;BME280;26881;48.784;9.192;2023-11-21T11:41:39;98238.59;;;10.42;94.52
41140;BME280;26881;48.784;9.192;2023-11-21T11:47:02;98249.03;;;10.57;96.29
41140;BME280;26881;48.784;9.192;2023-11-21T11:58:05;98242.78;;;10.45;94.22
41140;BME280;26881;48.784;9.192;2023-11-21T12:03:27;98248.41;;;10.39;93.78
41140;BME280;26881;48.784;9.192;2023-11-21T12:08:51;98261.09;;;10.45;95.31
41140;BME280;26881;48.784;9.192;2023-11-21T12:14:14;98256.63;;;10.47;95.33
41140;BME280;26881;48.784;9.192;2023-11-21T12:19:36;98261.25;;;10.56;95.13
41140;BME280;26881;48.784;9.192;2023-11-21T12:24:59;98263.19;;;10.40;96.42
41140;BME280;26881;48.784;9.192;2023-11-21T12:30:24;98261.75;;;10.34;95.28
41140;BME280;26881;48.784;9.192;2023-11-21T12:35:46;98255.34;;;10.40;95.58
41140;BME280;26881;48.784;9.192;2023-11-21T12:41:09;98275.72;;;10.62;95.22
41140;BME280;26881;48.784;9.192;2023-11-21T12:46:31;98275.19;;;10.69;92.20
41140;BME280;26881;48.784;9.192;2023-11-21T12:51:56;98276.88;;;10.97;89.66
41140;BME280;26881;48.784;9.192;2023-11-21T12:57:17;98276.03;;;11.63;87.08
41140;BME280;26881;48.784;9.192;2023-11-21T13:02:42;98269.66;;;11.79;84.07
41140;BME280;26881;48.784;9.192;2023-11-21T13:08:06;98274.44;;;11.34;87.95
41140;BME280;26881;48.784;9.192;2023-11-21T13:13:33;98270.97;;;10.81;92.01
41140;BME280;26881;48.784;9.192;2023-11-21T13:18:55;98281.03;;;10.60;94.78
41140;BME280;26881;48.784;9.192;2023-11-21T13:24:17;98289.50;;;10.37;99.18
41140;BME280;26881;48.784;9.192;2023-11-21T13:29:39;98295.53;;;10.23;99.76
41140;BME280;26881;48.784;9.192;2023-11-21T13:35:01;98308.72;;;9.78;100.00
41140;BME280;26881;48.784;9.192;2023-11-21T13:40:23;98313.25;;;9.60;100.00
41140;BME280;26881;48.784;9.192;2023-11-21T13:45:49;98321.44;;;9.40;100.00
41140;BME280;26881;48.784;9.192;2023-11-21T13:51:22;98318.53;;;9.30;100.00
41140;BME280;26881;48.784;9.192;2023-11-21T13:56:52;98328.22;;;9.28;100.00
41140;BME280;26881;48.784;9.192;2023-11-21T14:02:14;98330.47;;;9.18;100.00
41140;BME280;26881;48.784;9.192;2023-11-21T14:07:49;98341.03;;;9.17;100.00
41140;BME280;26881;48.784;9.192;2023-11-21T14:13:11;98349.59;;;9.19;100.00
41140;BME280;26881;48.784;9.192;2023-11-21T14:18:34;98350.38;;;9.21;100.00
41140;BME280;26881;48.784;9.192;2023-11-21T14:24:00;98354.47;;;9.25;100.00
41140;BME280;26881;48.784;9.192;2023-11-21T14:29:22;98358.75;;;9.26;100.00
41140;BME280;26881;48.784;9.192;2023-11-21T14:34:45;98359.59;;;9.26;100.00
41140;BME280;26881;48.784;9.192;2023-11-21T14:40:10;98367.44;;;9.11;100.00
41140;BME280;26881;48.784;9.192;2023-11-21T14:45:33;98372.34;;;9.17;100.00
41140;BME280;26881;48.784;9.192;2023-11-21T14:50:55;98369.63;;;9.18;100.00
41140;BME280;26881;48.784;9.192;2023-11-21T14:56:23;98385.78;;;9.25;100.00
41140;BME280;26881;48.784;9.192;2023-11-21T15:01:48;98395.44;;;9.23;100.00
41140;BME280;26881;48.784;9.192;2023-11-21T15:07:17;98392.13;;;9.21;100.00
41140;BME280;26881;48.784;9.192;2023-11-21T15:12:39;98402.97;;;9.13;100.00
41140;BME280;26881;48.784;9.192;2023-11-21T15:18:02;98407.53;;;9.10;100.00
41140;BME280;26881;48.784;9.192;2023-11-21T15:23:24;98421.47;;;9.08;100.00
41140;BME280;26881;48.784;9.192;2023-11-21T15:28:46;98432.66;;;9.11;100.00
41140;BME280;26881;48.784;9.192;2023-11-21T15:34:08;98430.81;;;9.13;100.00
41140;BME280;26881;48.784;9.192;2023-11-21T15:39:30;98443.03;;;9.12;100.00
41140;BME280;26881;48.784;9.192;2023-11-21T15:44:52;98449.41;;;9.06;100.00
41140;BME280;26881;48.784;9.192;2023-11-21T15:50:14;98449.66;;;9.02;100.00
41140;BME280;26881;48.784;9.192;2023-11-21T15:55:37;98452.94;;;8.90;100.00
41140;BME280;26881;48.784;9.192;2023-11-21T16:01:04;98458.06;;;8.75;100.00
41140;BME280;26881;48.784;9.192;2023-11-21T16:06:27;98473.25;;;8.67;100.00
41140;BME280;26881;48.784;9.192;2023-11-21T16:11:50;98482.19;;;8.63;100.00
41140;BME280;26881;48.784;9.192;2023-11-21T16:17:22;98485.69;;;8.62;100.00
41140;BME280;26881;48.784;9.192;2023-11-21T16:22:44;98498.84;;;8.60;100.00
41140;BME280;26881;48.784;9.192;2023-11-21T16:28:07;98496.06;;;8.63;100.00
41140;BME280;26881;48.784;9.192;2023-11-21T16:33:29;98502.81;;;8.68;100.00
41140;BME280;26881;48.784;9.192;2023-11-21T16:38:51;98515.97;;;8.64;100.00
41140;BME280;26881;48.784;9.192;2023-11-21T16:44:20;98518.16;;;8.56;100.00
41140;BME280;26881;48.784;9.192;2023-11-21T16:49:44;98515.56;;;8.56;100.00
41140;BME280;26881;48.784;9.192;2023-11-21T16:55:06;98534.34;;;8.46;100.00
41140;BME280;26881;48.784;9.192;2023-11-21T17:00:30;98547.19;;;8.31;100.00
41140;BME280;26881;48.784;9.192;2023-11-21T17:05:52;98546.22;;;8.16;100.00
41140;BME280;26881;48.784;9.192;2023-11-21T17:11:14;98558.22;;;8.01;100.00
41140;BME280;26881;48.784;9.192;2023-11-21T17:16:36;98564.03;;;7.89;100.00
41140;BME280;26881;48.784;9.192;2023-11-21T17:21:59;98567.84;;;7.82;100.00
41140;BME280;26881;48.784;9.192;2023-11-21T17:27:20;98567.00;;;7.81;100.00
41140;BME280;26881;48.784;9.192;2023-11-21T17:32:43;98569.00;;;7.76;100.00
41140;BME280;26881;48.784;9.192;2023-11-21T17:38:06;98580.41;;;7.74;100.00
41140;BME280;26881;48.784;9.192;2023-11-21T17:43:28;98590.81;;;7.74;100.00
41140;BME280;26881;48.784;9.192;2023-11-21T17:48:50;98588.88;;;7.77;100.00
41140;BME280;26881;48.784;9.192;2023-11-21T17:54:15;98600.47;;;7.89;100.00
41140;BME280;26881;48.784;9.192;2023-11-21T17:59:39;98619.25;;;7.96;100.00
41140;BME280;26881;48.784;9.192;2023-11-21T18:05:01;98620.59;;;8.05;100.00
41140;BME280;26881;48.784;9.192;2023-11-21T18:10:26;98623.09;;;8.06;100.00
41140;BME280;26881;48.784;9.192;2023-11-21T18:15:48;98628.88;;;8.13;100.00
41140;BME280;26881;48.784;9.192;2023-11-21T18:21:10;98634.84;;;8.15;100.00
41140;BME280;26881;48.784;9.192;2023-11-21T18:26:32;98635.78;;;8.14;100.00
41140;BME280;26881;48.784;9.192;2023-11-21T18:31:54;98643.88;;;8.08;100.00
41140;BME280;26881;48.784;9.192;2023-11-21T18:37:16;98662.81;;;8.11;100.00
41140;BME280;26881;48.784;9.192;2023-11-21T18:42:38;98661.84;;;8.14;100.00
41140;BME280;26881;48.784;9.192;2023-11-21T18:48:03;98661.63;;;8.18;100.00
41140;BME280;26881;48.784;9.192;2023-11-21T18:53:25;98669.28;;;8.21;100.00
41140;BME280;26881;48.784;9.192;2023-11-21T18:58:50;98679.84;;;8.18;100.00
41140;BME280;26881;48.784;9.192;2023-11-21T19:04:12;98682.13;;;8.24;100.00
41140;BME280;26881;48.784;9.192;2023-11-21T19:09:36;98685.59;;;8.25;100.00
41140;BME280;26881;48.784;9.192;2023-11-21T19:14:58;98692.78;;;8.20;100.00
41140;BME280;26881;48.784;9.192;2023-11-21T19:20:20;98699.91;;;8.16;100.00
41140;BME280;26881;48.784;9.192;2023-11-21T19:25:44;98697.16;;;8.19;100.00
41140;BME280;26881;48.784;9.192;2023-11-21T19:31:14;98712.16;;;8.14;100.00
41140;BME280;26881;48.784;9.192;2023-11-21T19:36:39;98722.38;;;8.19;100.00
41140;BME280;26881;48.784;9.192;2023-11-21T19:42:03;98729.97;;;8.23;100.00
41140;BME280;26881;48.784;9.192;2023-11-21T19:47:25;98724.03;;;8.20;100.00
41140;BME280;26881;48.784;9.192;2023-11-21T19:52:47;98727.66;;;8.17;100.00
41140;BME280;26881;48.784;9.192;2023-11-21T19:58:08;98737.28;;;8.15;100.00
41140;BME280;26881;48.784;9.192;2023-11-21T20:03:32;98747.13;;;8.09;100.00
41140;BME280;26881;48.784;9.192;2023-11-21T20:08:56;98748.84;;;8.10;100.00
41140;BME280;26881;48.784;9.192;2023-11-21T20:14:21;98764.47;;;8.10;100.00
41140;BME280;26881;48.784;9.192;2023-11-21T20:19:43;98773.06;;;8.12;100.00
41140;BME280;26881;48.784;9.192;2023-11-21T20:25:06;98780.72;;;8.15;100.00
41140;BME280;26881;48.784;9.192;2023-11-21T20:30:29;98785.06;;;8.16;100.00
41140;BME280;26881;48.784;9.192;2023-11-21T20:35:52;98795.53;;;8.14;100.00
41140;BME280;26881;48.784;9.192;2023-11-21T20:41:14;98796.84;;;8.04;100.00
41140;BME280;26881;48.784;9.192;2023-11-21T20:46:43;98802.13;;;8.02;100.00
41140;BME280;26881;48.784;9.192;2023-11-21T20:52:05;98802.13;;;8.02;100.00
41140;BME280;26881;48.784;9.192;2023-11-21T20:57:28;98807.69;;;7.95;100.00
41140;BME280;26881;48.784;9.192;2023-11-21T21:02:50;98810.84;;;8.01;100.00
41140;BME280;26881;48.784;9.192;2023-11-21T21:08:14;98812.63;;;8.01;100.00
41140;BME280;26881;48.784;9.192;2023-11-21T21:13:36;98817.97;;;7.98;100.00
41140;BME280;26881;48.784;9.192;2023-11-21T21:18:58;98813.66;;;7.97;100.00
41140;BME280;26881;48.784;9.192;2023-11-21T21:24:24;98823.31;;;7.95;100.00
41140;BME280;26881;48.784;9.192;2023-11-21T21:29:46;98818.03;;;7.96;100.00
41140;BME280;26881;48.784;9.192;2023-11-21T21:35:08;98813.66;;;7.97;100.00
41140;BME280;26881;48.784;9.192;2023-11-21T21:40:30;98811.78;;;8.00;100.00
41140;BME280;26881;48.784;9.192;2023-11-21T21:45:53;98827.47;;;7.99;100.00
41140;BME280;26881;48.784;9.192;2023-11-21T21:51:16;98827.56;;;7.97;100.00
41140;BME280;26881;48.784;9.192;2023-11-21T21:56:38;98821.41;;;7.98;100.00
41140;BME280;26881;48.784;9.192;2023-11-21T22:02:00;98833.59;;;7.98;100.00
41140;BME280;26881;48.784;9.192;2023-11-21T22:07:22;98834.63;;;7.94;100.00
41140;BME280;26881;48.784;9.192;2023-11-21T22:12:44;98835.41;;;7.96;100.00
41140;BME280;26881;48.784;9.192;2023-11-21T22:18:06;98842.41;;;7.95;100.00
41140;BME280;26881;48.784;9.192;2023-11-21T22:23:28;98840.19;;;7.86;100.00
41140;BME280;26881;48.784;9.192;2023-11-21T22:28:50;98840.06;;;7.89;100.00
41140;BME280;26881;48.784;9.192;2023-11-21T22:34:12;98841.81;;;7.89;100.00
41140;BME280;26881;48.784;9.192;2023-11-21T22:39:34;98847.16;;;7.86;100.00
41140;BME280;26881;48.784;9.192;2023-11-21T22:44:56;98842.72;;;7.88;100.00
41140;BME280;26881;48.784;9.192;2023-11-21T22:50:18;98851.88;;;7.96;100.00
41140;BME280;26881;48.784;9.192;2023-11-21T22:55:40;98853.84;;;7.91;100.00
41140;BME280;26881;48.784;9.192;2023-11-21T23:01:02;98851.16;;;7.74;100.00
41140;BME280;26881;48.784;9.192;2023-11-21T23:06:24;98863.88;;;7.80;100.00
41140;BME280;26881;48.784;9.192;2023-11-21T23:11:46;98859.47;;;7.82;100.00
41140;BME280;26881;48.784;9.192;2023-11-21T23:17:07;98862.22;;;7.79;100.00
41140;BME280;26881;48.784;9.192;2023-11-21T23:22:29;98865.78;;;7.76;100.00
41140;BME280;26881;48.784;9.192;2023-11-21T23:27:54;98857.91;;;7.78;100.00
41140;BME280;26881;48.784;9.192;2023-11-21T23:33:16;98870.84;;;7.79;100.00
41140;BME280;26881;48.784;9.192;2023-11-21T23:38:38;98875.03;;;7.84;100.00
41140;BME280;26881;48.784;9.192;2023-11-21T23:44:03;98872.53;;;7.80;100.00
41140;BME280;26881;48.784;9.192;2023-11-21T23:49:26;98858.72;;;7.78;100.00
41140;BME280;26881;48.784;9.192;2023-11-21T23:54:48;98856.13;;;7.78;100.00
